Time;durP1;ratioP1;P1;durP2;ratioP2;P2;SDS_P1;SDS_P2;PMS_P1;PMS_P2;Temp;Humidity;BMP_temperature;BMP_pressure;BME280_temperature;BME280_humidity;BME280_pressure;Samples;Min_cycle;Max_cycle;Signal;HPM_P1;HPM_P2
2022/09/06 00:01:25;;;;;;;10.65;4.22;;;;;;;19.97;58.35;99179.63;5262305;28;20670;-72
2022/09/06 00:04:16;;;;;;;6.07;3.67;;;;;;;19.88;58.05;99170.03;5265988;28;20040;-72
2022/09/06 00:07:06;;;;;;;6.88;4.40;;;;;;;19.82;58.66;99178.91;5261162;28;20052;-72
2022/09/06 00:09:56;;;;;;;6.90;3.90;;;;;;;19.73;57.85;99169.31;5258863;28;20094;-72
2022/09/06 00:12:46;;;;;;;5.65;4.18;;;;;;;19.91;58.36;99167.78;5262969;28;20124;-72
2022/09/06 00:15:36;;;;;;;6.15;4.10;;;;;;;19.90;58.54;99162.56;5264707;28;20132;-72
2022/09/06 00:18:26;;;;;;;8.93;3.63;;;;;;;19.92;58.65;99163.22;5265776;28;20040;-72
2022/09/06 00:21:25;;;;;;;7.68;3.55;;;;;;;19.75;59.12;99165.41;5266398;28;20052;-72
2022/09/06 00:24:15;;;;;;;8.27;4.40;;;;;;;19.75;59.38;99162.72;5259610;28;20059;-72
2022/09/06 00:27:06;;;;;;;7.32;3.97;;;;;;;19.71;59.13;99159.59;5265543;28;20532;-72
2022/09/06 00:29:57;;;;;;;8.63;4.15;;;;;;;19.70;59.24;99157.94;5263994;28;20555;-72
2022/09/06 00:32:46;;;;;;;4.80;3.80;;;;;;;19.56;59.63;99163.41;5263410;28;20047;-72
2022/09/06 00:35:37;;;;;;;8.68;4.65;;;;;;;19.65;59.36;99159.56;5266615;28;20162;-72
2022/09/06 00:38:27;;;;;;;8.13;4.22;;;;;;;19.51;59.24;99168.56;5264602;28;20047;-72
2022/09/06 00:41:18;;;;;;;10.35;4.20;;;;;;;19.50;59.52;99170.41;5265220;28;20040;-72
2022/09/06 00:44:08;;;;;;;7.07;4.50;;;;;;;19.37;59.34;99173.84;5260951;28;20054;-72
2022/09/06 00:46:59;;;;;;;6.22;3.95;;;;;;;19.14;59.39;99167.84;5267109;28;20130;-72
2022/09/06 00:49:52;;;;;;;7.95;4.05;;;;;;;19.19;59.55;99166.25;5265474;28;20441;-72
2022/09/06 00:52:45;;;;;;;7.38;3.75;;;;;;;19.10;60.29;99153.16;5263182;28;20056;-72
2022/09/06 00:55:35;;;;;;;6.68;4.75;;;;;;;19.32;59.72;99159.31;5266004;28;20501;-72
2022/09/06 00:58:26;;;;;;;7.47;4.05;;;;;;;19.09;60.04;99164.94;5265255;28;20044;-72
2022/09/06 01:01:17;;;;;;;7.03;4.55;;;;;;;18.90;60.69;99156.50;5262034;28;20054;-72
2022/09/06 01:04:08;;;;;;;5.63;3.90;;;;;;;18.91;60.58;99154.69;5267195;28;20048;-72
2022/09/06 01:07:17;;;;;;;6.25;4.00;;;;;;;19.05;60.81;99164.50;5262537;28;20584;-72
2022/09/06 01:10:29;;;;;;;6.18;4.28;;;;;;;18.74;61.43;99173.75;5265726;28;20071;-72
2022/09/06 01:13:55;;;;;;;10.43;4.00;;;;;;;18.72;61.52;99186.53;5265406;28;20048;-72
2022/09/06 01:17:13;;;;;;;5.00;4.03;;;;;;;18.55;61.07;99175.16;5263587;28;20052;-72
2022/09/06 01:20:27;;;;;;;6.45;3.78;;;;;;;18.63;60.63;99171.50;5261468;28;20052;-72
2022/09/06 01:23:39;;;;;;;8.23;4.07;;;;;;;18.67;60.79;99166.59;5246523;28;20048;-72
2022/09/06 01:27:05;;;;;;;6.22;4.00;;;;;;;18.75;61.35;99167.34;5261869;28;20085;-72
2022/09/06 01:30:04;;;;;;;9.43;4.05;;;;;;;18.78;61.94;99175.00;5263090;28;20090;-72
2022/09/06 01:33:02;;;;;;;10.05;4.25;;;;;;;18.86;61.83;99184.78;5261403;28;20048;-72
2022/09/06 01:36:00;;;;;;;7.40;4.35;;;;;;;18.86;62.02;99192.03;5264446;28;20165;-72
2022/09/06 01:38:50;;;;;;;10.68;4.47;;;;;;;18.72;61.23;99189.22;5266303;28;20454;-72
2022/09/06 01:41:40;;;;;;;5.60;3.95;;;;;;;18.70;61.04;99193.91;5262571;28;20672;-72
2022/09/06 01:44:32;;;;;;;9.13;4.53;;;;;;;18.52;62.03;99186.28;5260985;28;20052;-72
2022/09/06 01:47:41;;;;;;;7.07;3.80;;;;;;;18.62;61.65;99195.88;5261537;28;20048;-72
2022/09/06 01:50:42;;;;;;;7.85;4.15;;;;;;;18.67;61.82;99196.97;5260011;28;20055;-71
2022/09/06 01:53:38;;;;;;;8.48;4.00;;;;;;;18.76;62.07;99201.22;5261422;28;20132;-72
2022/09/06 01:56:41;;;;;;;11.10;4.65;;;;;;;18.77;61.93;99197.53;5263226;28;20048;-72
2022/09/06 01:59:55;;;;;;;6.53;4.53;;;;;;;18.95;61.73;99191.69;5262203;28;20051;-72
2022/09/06 02:03:16;;;;;;;5.32;4.22;;;;;;;18.93;61.67;99201.78;5262787;28;20181;-72
2022/09/06 02:06:19;;;;;;;9.43;4.97;;;;;;;18.93;62.31;99191.06;5264087;28;20044;-73
2022/09/06 02:09:15;;;;;;;8.57;4.95;;;;;;;18.98;62.14;99204.75;5261242;28;20121;-71
2022/09/06 02:12:11;;;;;;;7.50;4.90;;;;;;;19.11;62.26;99222.84;5264085;28;20051;-73
2022/09/06 02:15:10;;;;;;;8.23;4.32;;;;;;;18.46;63.59;99297.13;5263326;28;20429;-71
2022/09/06 02:18:08;;;;;;;9.25;3.92;;;;;;;18.54;63.69;99293.50;5262302;28;20066;-71
2022/09/06 02:21:02;;;;;;;9.75;4.20;;;;;;;18.92;62.52;99298.72;5264144;28;20044;-72
2022/09/06 02:23:53;;;;;;;7.75;4.20;;;;;;;19.16;61.60;99289.47;5260719;28;20049;-73
2022/09/06 02:26:45;;;;;;;6.60;4.03;;;;;;;19.32;61.27;99286.50;5262463;28;20044;-72
2022/09/06 02:29:35;;;;;;;6.47;4.53;;;;;;;19.50;61.70;99294.09;5264041;28;20417;-72
2022/09/06 02:32:27;;;;;;;7.05;4.78;;;;;;;19.42;62.33;99284.31;5261820;28;20454;-71
2022/09/06 02:35:17;;;;;;;13.15;5.15;;;;;;;19.70;62.51;99295.16;5263278;28;20047;-72
2022/09/06 02:38:07;;;;;;;16.90;5.35;;;;;;;19.78;64.68;99293.34;5263434;28;20173;-72
2022/09/06 02:40:57;;;;;;;15.40;6.03;;;;;;;19.77;66.68;99283.59;5261532;28;20051;-72
2022/09/06 02:43:48;;;;;;;16.67;6.32;;;;;;;19.77;67.24;99283.59;5263294;28;20424;-73
2022/09/06 02:46:38;;;;;;;14.00;5.70;;;;;;;19.90;67.13;99278.28;5263361;28;20047;-72
2022/09/06 02:49:29;;;;;;;9.68;5.95;;;;;;;19.82;67.82;99289.22;5261901;28;20044;-72
2022/09/06 02:52:19;;;;;;;9.00;6.03;;;;;;;19.35;69.29;99278.06;5263195;28;20048;-72
2022/09/06 02:55:10;;;;;;;8.85;5.80;;;;;;;19.41;69.38;99266.53;5263028;28;20121;-72
2022/09/06 02:58:01;;;;;;;10.15;5.38;;;;;;;19.97;67.04;99246.91;5256529;28;20531;-72
2022/09/06 03:00:52;;;;;;;7.97;5.40;;;;;;;19.75;68.08;99258.75;5263187;28;20047;-72
2022/09/06 03:03:42;;;;;;;9.25;5.90;;;;;;;19.93;68.61;99224.06;5260679;28;20040;-72
2022/09/06 03:06:33;;;;;;;10.75;6.18;;;;;;;19.98;67.80;99170.50;5262693;28;20036;-72
2022/09/06 03:09:24;;;;;;;9.70;5.75;;;;;;;19.88;67.72;99168.19;5264575;28;20039;-72
2022/09/06 03:12:14;;;;;;;9.00;6.40;;;;;;;19.94;68.09;99182.69;5259684;28;20074;-72
2022/09/06 03:15:04;;;;;;;13.05;6.57;;;;;;;20.19;67.89;99191.91;5261887;28;20055;-72
2022/09/06 03:17:58;;;;;;;9.27;6.15;;;;;;;19.68;69.27;99199.53;5262878;28;20098;-72
2022/09/06 03:20:50;;;;;;;8.65;6.15;;;;;;;19.77;68.32;99192.97;5262862;28;20188;-72
2022/09/06 03:23:41;;;;;;;10.55;6.07;;;;;;;19.80;69.38;99181.81;5262452;28;20165;-72
2022/09/06 03:26:32;;;;;;;11.02;6.35;;;;;;;19.87;68.51;99177.28;5262198;28;20406;-72
2022/09/06 03:29:22;;;;;;;10.30;6.20;;;;;;;19.91;67.87;99205.44;5244818;28;20756;-72
2022/09/06 03:32:11;;;;;;;12.32;6.13;;;;;;;19.78;68.63;99221.53;5260962;28;20055;-72
2022/09/06 03:35:01;;;;;;;8.75;5.80;;;;;;;19.81;68.78;99225.69;5257293;28;20044;-72
2022/09/06 03:37:52;;;;;;;12.57;6.70;;;;;;;19.90;68.78;99227.16;5263177;28;20121;-72
2022/09/06 03:40:46;;;;;;;10.48;5.85;;;;;;;19.75;69.13;99224.59;5258206;28;20459;-72
2022/09/06 03:43:36;;;;;;;8.40;6.15;;;;;;;19.92;69.08;99238.56;5258624;28;20051;-72
2022/09/06 03:46:29;;;;;;;11.85;7.40;;;;;;;19.85;69.66;99248.47;5256803;28;20044;-72
2022/09/06 03:49:19;;;;;;;15.75;6.97;;;;;;;19.52;71.31;99249.03;5248813;28;20106;-72
2022/09/06 03:52:10;;;;;;;13.82;7.88;;;;;;;19.62;70.48;99252.22;5265554;28;20127;-72
2022/09/06 03:55:00;;;;;;;10.00;6.78;;;;;;;19.75;69.94;99248.00;5263978;28;20051;-72
2022/09/06 03:57:50;;;;;;;11.65;7.25;;;;;;;19.70;69.71;99244.03;5264733;28;21227;-72
2022/09/06 04:00:40;;;;;;;12.82;7.28;;;;;;;19.77;69.88;99240.53;5266524;28;20044;-72
2022/09/06 04:03:31;;;;;;;13.48;8.38;;;;;;;19.35;71.09;99212.72;5265605;28;20077;-72
2022/09/06 04:06:22;;;;;;;11.90;7.57;;;;;;;19.62;69.94;99211.84;5266166;28;20089;-72
2022/09/06 04:09:11;;;;;;;15.38;7.43;;;;;;;19.58;69.36;99215.97;5265906;28;20067;-72
2022/09/06 04:12:02;;;;;;;9.35;6.35;;;;;;;19.52;69.96;99221.31;5263488;28;20671;-72
2022/09/06 04:14:52;;;;;;;11.35;7.13;;;;;;;19.47;68.37;99225.44;5264536;28;20051;-72
2022/09/06 04:17:44;;;;;;;16.55;7.03;;;;;;;19.48;70.72;99232.47;5267191;28;20052;-72
2022/09/06 04:20:35;;;;;;;10.15;7.10;;;;;;;19.61;69.67;99226.34;5262893;28;20097;-72
2022/09/06 04:23:27;;;;;;;9.90;7.45;;;;;;;19.74;70.04;99220.25;5265910;28;20054;-72
2022/09/06 04:26:17;;;;;;;11.88;7.93;;;;;;;19.91;69.33;99210.84;5265643;28;20042;-73
2022/09/06 04:29:08;;;;;;;12.90;7.80;;;;;;;19.95;69.83;99208.56;5263445;28;20051;-72
2022/09/06 04:31:58;;;;;;;8.35;6.35;;;;;;;20.18;68.45;99201.03;5265966;28;20052;-72
2022/09/06 04:34:49;;;;;;;14.27;7.63;;;;;;;20.16;68.63;99208.47;5264841;28;20047;-73
2022/09/06 04:37:39;;;;;;;12.80;7.25;;;;;;;20.17;69.27;99195.84;5265840;28;20082;-73
2022/09/06 04:40:29;;;;;;;10.63;7.70;;;;;;;19.90;69.65;99202.94;5265145;28;20055;-73
2022/09/06 04:43:21;;;;;;;14.43;7.55;;;;;;;19.87;70.24;99203.38;5264367;28;20076;-73
2022/09/06 04:46:22;;;;;;;12.68;8.57;;;;;;;20.35;68.52;99206.06;5264618;28;20109;-73
2022/09/06 04:49:13;;;;;;;17.55;8.00;;;;;;;19.85;70.28;99210.78;5264690;28;20059;-72
2022/09/06 04:52:03;;;;;;;11.30;7.40;;;;;;;19.88;69.57;99210.41;5264553;28;20557;-73
2022/09/06 04:54:53;;;;;;;16.35;8.38;;;;;;;20.11;68.96;99228.94;5261280;28;20059;-72
2022/09/06 04:57:43;;;;;;;10.00;7.30;;;;;;;20.01;68.77;99215.03;5263949;28;20043;-73
2022/09/06 05:00:40;;;;;;;11.40;7.43;;;;;;;20.03;69.18;99235.31;5263939;28;20139;-72
2022/09/06 05:03:31;;;;;;;14.23;8.60;;;;;;;20.31;67.81;99229.88;5263918;28;20425;-72
2022/09/06 05:06:23;;;;;;;12.63;8.00;;;;;;;20.48;67.11;99232.22;5263057;28;20073;-73
2022/09/06 05:09:13;;;;;;;11.57;7.32;;;;;;;20.05;68.66;99241.34;5265377;28;20456;-72
2022/09/06 05:12:04;;;;;;;14.32;7.82;;;;;;;19.81;69.22;99244.50;5264173;28;20052;-72
2022/09/06 05:14:54;;;;;;;12.15;7.70;;;;;;;19.67;70.42;99247.13;5265061;28;20056;-72
2022/09/06 05:17:45;;;;;;;12.32;7.75;;;;;;;19.82;70.03;99232.72;5264378;28;20055;-72
2022/09/06 05:20:35;;;;;;;18.30;8.63;;;;;;;20.14;68.66;99247.41;5264099;28;20137;-72
2022/09/06 05:23:26;;;;;;;13.32;8.00;;;;;;;20.13;68.81;99253.78;5261214;28;20116;-69
2022/09/06 05:26:17;;;;;;;14.18;7.82;;;;;;;20.10;68.83;99257.72;5263148;28;20109;-71
2022/09/06 05:29:07;;;;;;;16.40;9.10;;;;;;;20.02;68.80;99233.66;5263731;28;20059;-70
2022/09/06 05:31:57;;;;;;;18.40;8.05;;;;;;;19.93;70.37;99248.28;5264552;28;20062;-71
2022/09/06 05:34:48;;;;;;;15.13;8.52;;;;;;;20.06;69.61;99242.16;5265265;28;20059;-69
2022/09/06 05:37:38;;;;;;;13.43;8.63;;;;;;;20.22;69.17;99249.91;5264366;28;20044;-70
2022/09/06 05:40:27;;;;;;;13.43;8.60;;;;;;;20.09;69.03;99231.00;5262723;28;20148;-73
2022/09/06 05:43:18;;;;;;;19.20;9.68;;;;;;;20.65;67.67;99250.53;5263460;28;20044;-71
2022/09/06 05:46:08;;;;;;;13.77;8.60;;;;;;;20.43;68.91;99251.69;5261322;28;20044;-71
2022/09/06 05:49:03;;;;;;;14.43;8.75;;;;;;;20.28;68.85;99251.81;5263481;28;20142;-69
2022/09/06 05:51:54;;;;;;;11.68;8.52;;;;;;;20.36;68.41;99250.78;5263437;28;20044;-70
2022/09/06 05:54:44;;;;;;;13.77;8.77;;;;;;;20.51;68.69;99248.81;5258319;28;20040;-71
2022/09/06 05:57:34;;;;;;;14.00;8.88;;;;;;;20.54;68.82;99253.00;5260224;28;20209;-71
2022/09/06 06:00:24;;;;;;;13.13;9.30;;;;;;;20.68;67.90;99249.28;5245133;28;20081;-71
2022/09/06 06:03:14;;;;;;;14.32;9.13;;;;;;;20.48;68.68;99238.41;5262183;28;20583;-72
2022/09/06 06:06:05;;;;;;;18.25;9.02;;;;;;;20.42;68.75;99244.59;5262399;28;20059;-70
2022/09/06 06:08:55;;;;;;;15.70;9.23;;;;;;;20.42;69.05;99245.44;5264002;28;20079;-71
2022/09/06 06:11:46;;;;;;;17.73;9.13;;;;;;;20.38;69.40;99249.56;5267699;28;20044;-73
2022/09/06 06:14:36;;;;;;;17.75;8.95;;;;;;;20.46;68.91;99250.41;5265261;28;20510;-73
2022/09/06 06:17:26;;;;;;;15.35;9.48;;;;;;;20.45;69.96;99251.47;5266595;28;20052;-73
2022/09/06 06:20:16;;;;;;;15.95;9.05;;;;;;;20.77;67.99;99263.44;5263102;28;20048;-75
2022/09/06 06:23:07;;;;;;;12.60;8.07;;;;;;;20.67;68.05;99265.69;5268820;28;20052;-76
2022/09/06 06:25:57;;;;;;;15.45;8.68;;;;;;;20.54;69.08;99275.38;5255685;28;20051;-75
2022/09/06 06:28:47;;;;;;;14.73;8.75;;;;;;;20.75;68.86;99276.25;5260468;28;20484;-74
2022/09/06 06:31:37;;;;;;;19.45;9.13;;;;;;;20.83;68.84;99273.41;5262458;28;20426;-75
2022/09/06 06:34:28;;;;;;;16.13;9.40;;;;;;;21.13;68.29;99270.34;5262553;28;20051;-75
2022/09/06 06:37:18;;;;;;;12.15;8.25;;;;;;;21.29;67.47;99269.91;5267882;28;20086;-73
2022/09/06 06:40:09;;;;;;;22.52;8.45;;;;;;;21.70;65.14;99266.22;5262951;28;20071;-73
2022/09/06 06:43:00;;;;;;;16.33;8.35;;;;;;;21.52;66.29;99267.69;5265842;28;20052;-74
2022/09/06 06:45:50;;;;;;;14.68;8.43;;;;;;;21.84;64.19;99242.75;5262897;28;20050;-75
2022/09/06 06:48:42;;;;;;;13.98;8.63;;;;;;;21.84;65.00;99265.16;5247804;28;20418;-74
2022/09/06 06:51:38;;;;;;;16.88;8.23;;;;;;;21.96;65.03;99273.47;5261443;28;20135;-75
2022/09/06 06:54:28;;;;;;;12.55;8.02;;;;;;;22.16;63.80;99266.19;5263942;28;20469;-75
2022/09/06 06:57:18;;;;;;;13.32;8.02;;;;;;;22.13;64.60;99268.44;5261162;28;20043;-74
2022/09/06 07:00:09;;;;;;;11.70;7.53;;;;;;;22.13;66.04;99273.84;5263103;28;20556;-74
2022/09/06 07:03:00;;;;;;;18.15;7.50;;;;;;;22.72;64.81;99264.72;5256739;28;20052;-74
2022/09/06 07:05:50;;;;;;;15.00;6.85;;;;;;;23.15;61.67;99266.78;5262340;28;20086;-74
2022/09/06 07:09:00;;;;;;;11.20;6.25;;;;;;;23.54;59.58;99256.66;5263344;28;20079;-74
2022/09/06 07:11:50;;;;;;;12.13;5.95;;;;;;;23.45;59.62;99250.72;5261952;28;20052;-74
2022/09/06 07:14:41;;;;;;;11.75;6.18;;;;;;;23.21;60.80;99231.56;5260542;28;20048;-74
2022/09/06 07:17:31;;;;;;;8.52;5.93;;;;;;;23.40;60.14;99248.66;5259628;28;20434;-74
2022/09/06 07:20:22;;;;;;;10.50;5.50;;;;;;;23.07;59.50;99243.50;5258120;28;20089;-74
2022/09/06 07:23:13;;;;;;;10.02;6.00;;;;;;;23.04;60.71;99256.63;5261871;28;20156;-74
2022/09/06 07:26:28;;;;;;;13.38;5.63;;;;;;;22.99;60.48;99246.47;5266178;28;20431;-74
2022/09/06 07:29:18;;;;;;;9.43;5.32;;;;;;;23.23;59.13;99255.66;5268319;28;20146;-74
2022/09/06 07:32:09;;;;;;;9.80;4.50;;;;;;;23.08;58.75;99247.03;5265559;28;20052;-73
2022/09/06 07:35:04;;;;;;;6.35;4.63;;;;;;;22.96;59.86;99263.13;5267396;28;20103;-75
2022/09/06 07:37:56;;;;;;;6.90;4.80;;;;;;;23.31;59.05;99259.97;5264037;28;20051;-75
2022/09/06 07:40:53;;;;;;;8.55;4.65;;;;;;;23.20;58.61;99261.50;5266218;28;20627;-74
2022/09/06 07:43:43;;;;;;;7.25;4.85;;;;;;;23.22;59.03;99259.44;5263778;28;20173;-76
2022/09/06 07:46:34;;;;;;;8.80;4.72;;;;;;;24.07;56.94;99261.59;5261890;28;20509;-77
2022/09/06 07:49:24;;;;;;;7.88;4.47;;;;;;;23.96;57.58;99259.63;5260334;28;20054;-74
2022/09/06 07:52:14;;;;;;;6.53;5.10;;;;;;;24.20;57.73;99252.50;5264304;28;20051;-73
2022/09/06 07:55:24;;;;;;;5.45;3.90;;;;;;;25.29;53.33;99251.47;5262435;28;20109;-72
2022/09/06 07:58:15;;;;;;;6.75;4.10;;;;;;;25.89;51.89;99257.78;5257452;28;20051;-73
2022/09/06 08:01:29;;;;;;;7.45;4.07;;;;;;;26.94;49.16;99243.94;5264385;28;20160;-72
2022/09/06 08:04:19;;;;;;;8.40;3.97;;;;;;;27.56;48.41;99237.66;5261848;28;20059;-72
2022/09/06 08:07:09;;;;;;;10.60;4.22;;;;;;;27.01;49.61;99240.22;5266723;28;20083;-72
2022/09/06 08:10:20;;;;;;;7.10;3.53;;;;;;;28.24;47.04;99238.34;5266219;28;20533;-72
2022/09/06 08:13:10;;;;;;;6.78;3.58;;;;;;;28.16;46.58;99232.53;5270526;28;20508;-72
2022/09/06 08:16:02;;;;;;;8.60;3.42;;;;;;;29.01;44.81;99231.09;5268710;28;20059;-73
2022/09/06 08:18:59;;;;;;;5.43;3.40;;;;;;;29.79;42.54;99228.72;5260273;28;20145;-73
2022/09/06 08:21:53;;;;;;;5.40;3.00;;;;;;;29.66;44.61;99227.25;5259863;28;20063;-73
2022/09/06 08:24:42;;;;;;;5.97;3.35;;;;;;;30.13;43.31;99233.81;5266447;28;20054;-73
2022/09/06 08:27:33;;;;;;;4.53;3.42;;;;;;;30.29;41.70;99232.81;5261572;28;20130;-71
2022/09/06 08:30:24;;;;;;;5.43;3.70;;;;;;;30.03;41.19;99241.97;5267159;28;20059;-72
2022/09/06 08:33:14;;;;;;;7.38;3.35;;;;;;;29.68;43.45;99236.03;5261325;28;20146;-72
2022/09/06 08:36:06;;;;;;;7.50;3.22;;;;;;;30.49;41.13;99220.31;5258135;28;20055;-76
2022/09/06 08:39:02;;;;;;;4.50;3.30;;;;;;;30.70;40.56;99226.69;5263864;28;20058;-75
2022/09/06 08:42:04;;;;;;;6.65;2.95;;;;;;;30.85;42.35;99232.19;5261762;28;20089;-73
2022/09/06 08:44:56;;;;;;;4.65;3.03;;;;;;;31.73;38.46;99229.22;5260410;28;20125;-74
2022/09/06 08:47:49;;;;;;;6.88;2.78;;;;;;;31.39;39.16;99231.75;5267372;28;20501;-73
2022/09/06 08:50:46;;;;;;;7.07;2.92;;;;;;;31.01;39.86;99213.88;5265501;28;20510;-72
2022/09/06 08:53:45;;;;;;;6.93;2.97;;;;;;;30.54;41.86;99223.91;5265867;28;20059;-72
2022/09/06 08:56:48;;;;;;;6.05;3.10;;;;;;;30.34;40.82;99213.72;5265531;28;20067;-73
2022/09/06 08:59:41;;;;;;;5.05;2.78;;;;;;;29.12;42.26;99226.53;5264741;28;20873;-70
2022/09/06 09:02:41;;;;;;;5.20;3.10;;;;;;;29.57;42.26;99226.09;5263087;28;20533;-70
2022/09/06 09:05:34;;;;;;;8.02;3.20;;;;;;;29.82;42.54;99211.78;5261350;28;20173;-71
2022/09/06 09:08:38;;;;;;;7.95;3.10;;;;;;;30.32;40.50;99204.13;5263019;28;20047;-71
2022/09/06 09:11:32;;;;;;;8.32;3.10;;;;;;;30.18;41.40;99201.88;5262456;28;20097;-72
2022/09/06 09:14:34;;;;;;;5.57;2.67;;;;;;;29.79;42.49;99198.66;5262651;28;20098;-71
2022/09/06 09:17:28;;;;;;;9.18;3.33;;;;;;;29.41;43.67;99186.91;5259365;28;20044;-72
2022/09/06 09:20:18;;;;;;;6.78;3.33;;;;;;;29.18;43.77;99204.50;5263822;28;20573;-72
2022/09/06 09:23:08;;;;;;;7.07;2.95;;;;;;;29.18;43.61;99201.75;5262685;28;20055;-71
2022/09/06 09:26:03;;;;;;;7.93;3.30;;;;;;;28.59;47.03;99198.16;5258721;28;20063;-71
2022/09/06 09:29:08;;;;;;;5.53;3.13;;;;;;;28.60;45.46;99205.25;5264117;28;20106;-71
2022/09/06 09:31:58;;;;;;;6.68;3.03;;;;;;;28.76;45.74;99207.06;5263700;28;20047;-73
2022/09/06 09:34:50;;;;;;;8.50;3.92;;;;;;;29.07;44.62;99188.28;5264229;28;20558;-73
2022/09/06 09:37:41;;;;;;;4.97;3.22;;;;;;;29.02;45.01;99167.22;5262494;28;20056;-74
2022/09/06 09:40:40;;;;;;;3.92;3.10;;;;;;;29.40;43.35;99196.16;5262112;28;20123;-72
2022/09/06 09:43:35;;;;;;;10.77;4.15;;;;;;;29.26;45.07;99194.97;5262134;28;20185;-76
2022/09/06 09:46:25;;;;;;;6.03;3.65;;;;;;;29.32;43.26;99188.47;5258293;28;20415;-72
2022/09/06 09:49:34;;;;;;;5.55;3.17;;;;;;;29.49;48.08;99197.34;5259800;28;20124;-71
2022/09/06 09:52:29;;;;;;;6.68;3.55;;;;;;;29.99;44.78;99191.63;5258427;28;20125;-71
2022/09/06 09:55:23;;;;;;;7.57;3.13;;;;;;;30.57;43.37;99189.69;5261000;28;20127;-69
2022/09/06 09:58:30;;;;;;;14.10;4.35;;;;;;;30.61;41.78;99193.53;5259620;28;20040;-71
2022/09/06 10:01:25;;;;;;;4.38;3.40;;;;;;;30.83;40.63;99185.13;5261655;28;20048;-70
2022/09/06 10:04:39;;;;;;;6.60;3.20;;;;;;;30.67;41.14;99176.03;5261192;28;20530;-73
2022/09/06 10:07:42;;;;;;;7.95;3.40;;;;;;;31.16;40.31;99196.63;5266388;28;20055;-73
2022/09/06 10:10:37;;;;;;;8.88;3.55;;;;;;;31.13;40.44;99190.63;5256754;28;20093;-72
2022/09/06 10:13:29;;;;;;;6.00;3.60;;;;;;;30.82;42.55;99187.03;5248488;28;20048;-68
2022/09/06 10:16:43;;;;;;;9.77;3.65;;;;;;;30.88;42.26;99191.41;5262119;28;20048;-74
2022/09/06 10:19:44;;;;;;;6.43;3.58;;;;;;;30.76;43.75;99190.88;5264442;28;20135;-73
2022/09/06 10:22:57;;;;;;;3.75;3.30;;;;;;;30.75;44.35;99185.63;5266107;28;20082;-71
2022/09/06 10:26:06;;;;;;;6.57;3.45;;;;;;;30.91;41.93;99189.22;5265959;28;20087;-71
2022/09/06 10:29:10;;;;;;;10.15;3.40;;;;;;;31.13;41.11;99178.84;5268835;28;20048;-69
2022/09/06 10:32:12;;;;;;;5.78;3.85;;;;;;;31.39;40.28;99181.56;5260923;28;20060;-70
2022/09/06 10:35:14;;;;;;;9.35;3.03;;;;;;;30.63;41.86;99180.41;5239452;28;20048;-72
2022/09/06 10:38:14;;;;;;;11.38;3.55;;;;;;;31.02;42.56;99166.22;5265966;28;20113;-71
2022/09/06 10:41:42;;;;;;;7.85;3.20;;;;;;;30.83;40.56;99164.03;5245617;28;20063;-75
2022/09/06 10:44:54;;;;;;;9.10;3.25;;;;;;;30.63;40.93;99162.06;5259082;28;20177;-72
2022/09/06 10:48:08;;;;;;;11.30;3.25;;;;;;;30.10;40.71;99155.03;5247918;28;20063;-72
2022/09/06 10:51:13;;;;;;;7.53;3.25;;;;;;;30.14;42.92;99164.38;5260702;28;20612;-72
2022/09/06 10:54:09;;;;;;;9.52;3.38;;;;;;;30.33;43.00;99162.84;5261055;28;20087;-69
2022/09/06 10:57:13;;;;;;;7.53;3.08;;;;;;;29.99;42.65;99164.31;5262443;28;20104;-71
2022/09/06 11:00:24;;;;;;;5.20;3.00;;;;;;;30.15;43.46;99152.34;5262488;28;20120;-70
2022/09/06 11:03:28;;;;;;;12.63;3.50;;;;;;;30.31;42.81;99151.31;5257120;28;20074;-74
2022/09/06 11:06:44;;;;;;;9.07;3.40;;;;;;;30.40;43.95;99149.72;5256603;28;20070;-74
2022/09/06 11:09:47;;;;;;;10.65;3.33;;;;;;;30.07;42.56;99141.94;5258816;28;20051;-75
2022/09/06 11:12:59;;;;;;;7.45;2.70;;;;;;;29.90;44.61;99136.66;5258106;28;20101;-73
2022/09/06 11:16:12;;;;;;;4.57;2.42;;;;;;;30.32;41.94;99136.56;5255031;28;20048;-75
2022/09/06 11:19:10;;;;;;;5.93;2.83;;;;;;;30.27;41.61;99128.34;5257144;28;20770;-72
2022/09/06 11:22:38;;;;;;;5.45;2.88;;;;;;;30.22;41.61;99135.72;5239723;28;20101;-73
2022/09/06 11:26:02;;;;;;;6.70;2.65;;;;;;;29.75;42.46;99126.47;5254617;28;20045;-73
2022/09/06 11:28:56;;;;;;;6.00;2.92;;;;;;;30.41;42.05;99139.59;5237606;28;20047;-75
2022/09/06 11:32:23;;;;;;;4.50;2.80;;;;;;;30.83;40.30;99139.41;5255324;28;21165;-71
2022/09/06 11:35:23;;;;;;;6.63;2.60;;;;;;;30.64;39.45;99143.75;5241571;28;20528;-74
2022/09/06 11:38:13;;;;;;;8.23;2.72;;;;;;;30.91;40.02;99140.78;5255782;28;20583;-74
2022/09/06 11:41:11;;;;;;;6.10;2.40;;;;;;;30.04;41.65;99128.78;5254410;28;20054;-73
2022/09/06 11:44:02;;;;;;;7.25;2.80;;;;;;;30.46;40.42;99136.03;5254602;28;20130;-74
2022/09/06 11:46:52;;;;;;;10.13;2.85;;;;;;;30.08;41.36;99140.84;5256896;28;20051;-73
2022/09/06 11:49:43;;;;;;;11.15;2.42;;;;;;;30.53;40.09;99131.13;5258983;28;20096;-72
2022/09/06 11:52:58;;;;;;;6.38;2.60;;;;;;;30.73;40.07;99131.16;5257084;28;20457;-72
2022/09/06 11:55:51;;;;;;;7.32;2.22;;;;;;;30.45;39.66;99128.94;5261503;28;20542;-73
2022/09/06 11:59:01;;;;;;;3.75;2.10;;;;;;;30.03;39.62;99127.94;5243222;28;20055;-73
2022/09/06 12:02:04;;;;;;;6.85;2.00;;;;;;;30.35;39.39;99130.53;5244738;28;20070;-75
2022/09/06 12:04:58;;;;;;;10.00;2.10;;;;;;;30.30;40.25;99127.81;5247299;28;20055;-76
2022/09/06 12:08:14;;;;;;;4.78;1.77;;;;;;;30.16;39.30;99115.69;5260604;28;20051;-75
2022/09/06 12:11:28;;;;;;;5.50;1.92;;;;;;;30.57;38.81;99121.28;5261542;28;20063;-74
2022/09/06 12:14:32;;;;;;;2.67;1.60;;;;;;;30.61;37.11;99108.69;5245340;28;20066;-75
2022/09/06 12:17:23;;;;;;;6.15;1.40;;;;;;;30.35;35.68;99103.19;5263468;28;20602;-74
2022/09/06 12:20:49;;;;;;;5.57;2.20;;;;;;;29.69;38.82;99098.31;5260996;28;20466;-78
2022/09/06 12:23:41;;;;;;;4.68;2.10;;;;;;;29.74;39.89;99102.97;5259500;28;20185;-73
2022/09/06 12:26:51;;;;;;;5.50;1.90;;;;;;;29.85;39.51;99101.91;5259200;28;20626;-73
2022/09/06 12:29:53;;;;;;;7.40;2.20;;;;;;;29.98;39.76;99102.53;5262206;28;20093;-73
2022/09/06 12:32:48;;;;;;;7.60;2.35;;;;;;;29.42;39.31;99098.41;5263299;28;20125;-75
2022/09/06 12:35:39;;;;;;;7.68;1.88;;;;;;;29.54;39.06;99105.56;5260618;28;20059;-76
2022/09/06 12:39:08;;;;;;;5.70;2.10;;;;;;;29.53;40.47;99099.28;5259452;28;20111;-75
2022/09/06 12:42:06;;;;;;;6.72;2.40;;;;;;;29.73;39.62;99102.16;5228643;28;20113;-73
2022/09/06 12:44:56;;;;;;;6.28;2.30;;;;;;;29.67;42.73;99102.41;5244172;28;20055;-75
2022/09/06 12:47:47;;;;;;;5.28;2.03;;;;;;;29.62;40.07;99088.72;5262224;28;20526;-74
2022/09/06 12:50:38;;;;;;;6.35;2.38;;;;;;;29.52;41.55;99100.38;5266368;28;20040;-75
2022/09/06 12:53:30;;;;;;;4.50;2.03;;;;;;;29.45;41.30;99097.88;5262755;28;20059;-74
2022/09/06 12:56:22;;;;;;;2.88;2.35;;;;;;;29.41;41.17;99090.50;5255739;28;20052;-74
2022/09/06 12:59:20;;;;;;;7.90;2.95;;;;;;;29.28;42.41;99089.06;5264060;28;20048;-74
2022/09/06 13:02:15;;;;;;;6.25;2.65;;;;;;;29.56;42.19;99090.56;5263436;28;20098;-77
2022/09/06 13:05:08;;;;;;;8.68;2.50;;;;;;;29.87;40.26;99083.34;5257630;28;20044;-74
2022/09/06 13:08:02;;;;;;;7.80;2.67;;;;;;;30.24;38.55;99087.03;5245699;28;20121;-74
2022/09/06 13:10:53;;;;;;;5.68;2.72;;;;;;;30.26;39.80;99077.44;5262872;28;20059;-74
2022/09/06 13:13:47;;;;;;;8.27;3.08;;;;;;;30.45;40.27;99071.47;5261633;28;20169;-76
2022/09/06 13:16:44;;;;;;;5.95;2.58;;;;;;;30.00;39.31;99072.97;5259424;28;20051;-74
2022/09/06 13:19:38;;;;;;;11.07;2.38;;;;;;;29.98;40.20;99089.66;5262739;28;20090;-75
2022/09/06 13:22:46;;;;;;;7.28;2.30;;;;;;;29.90;41.58;99084.72;5260839;28;20063;-72
2022/09/06 13:25:48;;;;;;;5.25;2.75;;;;;;;29.74;41.84;99070.19;5262503;28;20559;-74
2022/09/06 13:28:38;;;;;;;9.02;2.60;;;;;;;29.83;41.42;99063.09;5259060;28;20442;-73
2022/09/06 13:31:29;;;;;;;7.75;2.80;;;;;;;29.72;40.54;99045.03;5258355;28;20518;-73
2022/09/06 13:34:31;;;;;;;5.20;2.25;;;;;;;29.96;41.28;99069.97;5259008;28;20063;-74
2022/09/06 13:37:30;;;;;;;7.07;2.25;;;;;;;29.83;40.42;99073.22;5259915;28;20599;-75
2022/09/06 13:40:40;;;;;;;12.85;3.10;;;;;;;29.84;40.28;99064.75;5257933;28;20040;-74
2022/09/06 13:44:03;;;;;;;5.78;2.30;;;;;;;29.57;41.35;99059.44;5257023;28;20056;-75